Time;durP1;ratioP1;P1;durP2;ratioP2;P2;SDS_P1;SDS_P2;PMS_P1;PMS_P2;Temp;Humidity;BMP_temperature;BMP_pressure;BME280_temperature;BME280_humidity;BME280_pressure;Samples;Min_cycle;Max_cycle;Signal;HPM_P1;HPM_P2
2022/05/08 00:02:04;;;;;;;8.33;7.73;;;13.70;99.90;;;;;;5053745;28;20413;-87
2022/05/08 00:04:30;;;;;;;7.82;7.32;;;13.70;99.90;;;;;;5052464;28;21009;-88
2022/05/08 00:06:55;;;;;;;8.40;7.80;;;13.60;99.90;;;;;;5053787;28;20413;-89
2022/05/08 00:09:21;;;;;;;7.93;7.43;;;13.80;99.90;;;;;;5053831;28;20393;-89
2022/05/08 00:11:46;;;;;;;8.40;7.80;;;13.70;99.90;;;;;;5053334;28;20870;-88
2022/05/08 00:14:12;;;;;;;8.60;8.07;;;13.80;99.90;;;;;;5053395;28;20857;-89
2022/05/08 00:16:38;;;;;;;8.17;7.47;;;13.70;99.90;;;;;;5052379;28;20396;-88
2022/05/08 00:19:03;;;;;;;7.87;7.27;;;13.70;99.90;;;;;;5053157;28;20393;-88
2022/05/08 00:21:29;;;;;;;8.23;7.68;;;13.70;99.90;;;;;;5053691;28;20431;-87
2022/05/08 00:23:54;;;;;;;7.90;7.30;;;13.70;99.90;;;;;;5053803;28;20421;-88
2022/05/08 00:26:20;;;;;;;7.47;6.88;;;13.70;99.90;;;;;;5053812;28;20385;-87
2022/05/08 00:28:46;;;;;;;7.77;7.27;;;13.70;99.90;;;;;;5054322;28;20435;-88
2022/05/08 00:31:12;;;;;;;7.80;7.10;;;13.70;99.90;;;;;;5054477;28;20417;-89
2022/05/08 00:33:38;;;;;;;8.23;7.63;;;13.70;99.90;;;;;;5053173;28;20723;-88
2022/05/08 00:36:05;;;;;;;8.43;7.93;;;13.60;99.90;;;;;;5053578;28;20755;-88
2022/05/08 00:38:30;;;;;;;8.00;7.50;;;13.50;99.90;;;;;;5053349;28;20742;-87
2022/05/08 00:40:56;;;;;;;7.53;7.03;;;13.40;99.90;;;;;;5053786;28;20412;-87
2022/05/08 00:43:31;;;;;;;8.23;7.53;;;13.60;99.90;;;;;;5053466;28;20417;-88
2022/05/08 00:45:58;;;;;;;8.00;7.40;;;13.60;99.90;;;;;;5050088;28;20409;-87
2022/05/08 00:48:23;;;;;;;7.60;7.10;;;13.60;99.90;;;;;;5053043;28;20878;-88
2022/05/08 00:50:52;;;;;;;7.63;7.13;;;13.60;99.90;;;;;;5053274;28;20400;-89
2022/05/08 00:53:19;;;;;;;7.95;7.25;;;13.60;99.90;;;;;;5052810;28;20430;-87
2022/05/08 00:55:45;;;;;;;6.90;6.50;;;13.60;99.90;;;;;;5053113;28;20385;-86
2022/05/08 00:58:11;;;;;;;7.70;7.20;;;13.60;99.90;;;;;;5051990;28;20392;-87
2022/05/08 01:00:37;;;;;;;7.30;6.90;;;13.60;99.90;;;;;;5052429;28;20771;-87
2022/05/08 01:03:03;;;;;;;7.90;7.30;;;13.70;99.90;;;;;;5052850;28;20389;-88
2022/05/08 01:05:30;;;;;;;7.83;7.33;;;13.60;99.90;;;;;;5052171;28;20459;-87
2022/05/08 01:07:55;;;;;;;8.15;7.63;;;13.60;99.90;;;;;;5052301;28;20415;-87
2022/05/08 01:10:22;;;;;;;7.53;7.03;;;13.40;99.90;;;;;;5052459;28;20871;-87
2022/05/08 01:12:47;;;;;;;7.28;6.80;;;13.40;99.90;;;;;;5052679;28;20389;-87
2022/05/08 01:15:15;;;;;;;8.30;7.70;;;13.50;99.90;;;;;;5048816;28;20381;-87
2022/05/08 01:17:41;;;;;;;7.93;7.43;;;13.50;99.90;;;;;;5052605;28;20383;-87
2022/05/08 01:20:07;;;;;;;8.32;7.72;;;13.30;99.90;;;;;;5050770;28;20400;-86
2022/05/08 01:22:33;;;;;;;8.07;7.57;;;13.40;99.90;;;;;;5052309;28;20736;-87
2022/05/08 01:25:00;;;;;;;8.00;7.50;;;13.30;99.90;;;;;;5052223;28;20451;-87
2022/05/08 01:27:25;;;;;;;7.82;7.32;;;13.50;99.90;;;;;;5051979;28;20512;-87
2022/05/08 01:29:51;;;;;;;7.65;7.05;;;13.50;99.90;;;;;;5052017;28;20465;-88
2022/05/08 01:32:17;;;;;;;8.25;7.72;;;13.60;99.90;;;;;;5051890;28;20389;-87
2022/05/08 01:34:43;;;;;;;8.38;7.88;;;13.60;99.90;;;;;;5051493;28;20405;-87
2022/05/08 01:37:08;;;;;;;8.60;8.00;;;13.60;99.90;;;;;;5051898;28;20381;-88
2022/05/08 01:39:34;;;;;;;8.00;7.50;;;13.50;99.90;;;;;;5051990;28;20738;-87
2022/05/08 01:42:02;;;;;;;8.70;8.10;;;13.60;99.90;;;;;;5051864;28;20913;-87
2022/05/08 01:44:28;;;;;;;9.02;8.43;;;13.60;99.90;;;;;;5051664;28;20381;-88
2022/05/08 01:48:21;;;;;;;8.60;7.90;;;13.60;99.90;;;;;;5048807;28;20382;-87
2022/05/08 01:49:39;;;;;;;8.82;8.25;;;13.60;99.90;;;;;;5051450;28;20924;-89
2022/05/08 01:52:05;;;;;;;8.63;8.13;;;13.60;99.90;;;;;;5051876;28;20393;-87
2022/05/08 01:54:31;;;;;;;8.45;7.85;;;13.50;99.90;;;;;;5052109;28;20388;-88
2022/05/08 01:56:57;;;;;;;8.98;8.23;;;13.40;99.90;;;;;;5051750;28;20389;-88
2022/05/08 01:59:22;;;;;;;9.10;8.43;;;13.40;99.90;;;;;;5051748;28;20427;-88
2022/05/08 02:01:48;;;;;;;8.45;7.93;;;13.40;99.90;;;;;;5051506;28;20405;-88
2022/05/08 02:04:15;;;;;;;9.25;8.55;;;13.30;99.90;;;;;;5051585;28;20385;-89
2022/05/08 02:06:44;;;;;;;9.27;8.38;;;13.50;99.90;;;;;;5051441;28;20472;-90
2022/05/08 02:09:10;;;;;;;8.93;8.32;;;13.30;99.90;;;;;;5051644;28;20424;-88
2022/05/08 02:11:37;;;;;;;9.43;8.73;;;13.30;99.90;;;;;;5051644;28;20421;-88
2022/05/08 02:14:03;;;;;;;9.10;8.50;;;13.30;99.90;;;;;;5051497;28;20392;-88
2022/05/08 02:16:29;;;;;;;9.43;8.73;;;13.20;99.90;;;;;;5051720;28;20382;-89
2022/05/08 02:18:55;;;;;;;9.68;9.07;;;13.20;99.90;;;;;;5055030;28;20742;-88
2022/05/08 02:21:21;;;;;;;9.63;8.93;;;13.20;99.90;;;;;;5053380;28;20492;-88
2022/05/08 02:23:47;;;;;;;9.77;9.07;;;13.20;99.90;;;;;;5049676;28;20417;-88
2022/05/08 02:26:13;;;;;;;9.93;9.25;;;13.30;99.90;;;;;;5054244;28;20373;-88
2022/05/08 02:28:41;;;;;;;10.07;9.35;;;13.30;99.90;;;;;;5053145;28;20389;-88
2022/05/08 02:31:07;;;;;;;10.65;9.85;;;13.20;99.90;;;;;;5055397;28;20913;-87
2022/05/08 02:33:33;;;;;;;10.55;9.70;;;13.20;99.90;;;;;;5054975;28;20443;-88
2022/05/08 02:35:59;;;;;;;10.95;10.25;;;13.20;99.90;;;;;;5054904;28;20393;-88
2022/05/08 02:38:25;;;;;;;9.68;9.05;;;13.10;99.90;;;;;;5055441;28;20400;-87
2022/05/08 02:40:51;;;;;;;10.63;9.93;;;13.20;99.90;;;;;;5054833;28;20924;-88
2022/05/08 02:43:20;;;;;;;10.27;9.48;;;13.10;99.90;;;;;;5055545;28;20396;-89
2022/05/08 02:45:46;;;;;;;10.43;9.63;;;13.10;99.90;;;;;;5054837;28;20381;-87
2022/05/08 02:48:12;;;;;;;11.23;10.43;;;13.00;99.90;;;;;;5054663;28;20464;-87
2022/05/08 02:50:38;;;;;;;10.60;9.85;;;13.10;99.90;;;;;;5054888;28;20387;-86
2022/05/08 02:53:04;;;;;;;10.37;9.63;;;13.20;99.90;;;;;;5054255;28;20377;-88
2022/05/08 02:58:32;;;;;;;11.73;10.82;;;13.20;99.90;;;;;;5054534;28;20384;-88
2022/05/08 03:00:59;;;;;;;12.63;11.52;;;13.10;99.90;;;;;;5054952;28;20410;-87
2022/05/08 03:03:25;;;;;;;11.83;11.03;;;12.90;99.90;;;;;;5054579;28;20411;-87
2022/05/08 03:05:51;;;;;;;12.18;11.38;;;13.10;99.90;;;;;;5054817;28;20404;-89
2022/05/08 03:08:18;;;;;;;11.67;10.87;;;13.00;99.90;;;;;;5054136;28;20453;-87
2022/05/08 03:13:38;;;;;;;11.57;10.77;;;13.10;99.90;;;;;;5054364;28;20405;-88
2022/05/08 03:16:04;;;;;;;11.87;11.07;;;13.20;99.90;;;;;;5050957;28;20385;-86
2022/05/08 03:18:30;;;;;;;10.82;10.13;;;13.20;99.90;;;;;;5054136;28;20385;-87
2022/05/08 03:20:56;;;;;;;11.38;10.68;;;13.20;99.90;;;;;;5054278;28;20432;-87
2022/05/08 03:23:22;;;;;;;11.30;10.60;;;13.30;99.90;;;;;;5054030;28;20393;-87
2022/05/08 03:25:48;;;;;;;11.48;10.68;;;13.40;99.90;;;;;;5053939;28;20381;-87
2022/05/08 03:28:16;;;;;;;12.03;11.13;;;13.40;99.90;;;;;;5053911;28;20469;-87
2022/05/08 03:30:43;;;;;;;13.00;11.98;;;13.40;99.90;;;;;;5053468;28;20377;-87
2022/05/08 03:33:09;;;;;;;13.60;12.60;;;13.10;99.90;;;;;;5054250;28;20731;-87
2022/05/08 03:35:40;;;;;;;13.23;12.32;;;12.80;99.90;;;;;;5053732;28;20374;-87
2022/05/08 03:38:06;;;;;;;13.07;12.07;;;12.80;99.90;;;;;;5052713;28;20388;-87
2022/05/08 03:40:33;;;;;;;12.55;11.65;;;12.80;99.90;;;;;;5052995;28;20393;-87
2022/05/08 03:42:59;;;;;;;12.73;11.77;;;13.00;99.90;;;;;;5048889;28;20393;-87
2022/05/08 03:45:25;;;;;;;14.68;13.75;;;12.70;99.90;;;;;;5053726;28;20432;-87
2022/05/08 03:47:52;;;;;;;13.80;12.80;;;12.50;99.90;;;;;;5053574;28;20397;-87
2022/05/08 03:50:19;;;;;;;13.38;12.38;;;12.50;99.90;;;;;;5053708;28;20393;-88
2022/05/08 03:52:44;;;;;;;12.63;11.70;;;12.60;99.90;;;;;;5053624;28;20389;-87
2022/05/08 03:55:11;;;;;;;12.93;12.02;;;12.80;99.90;;;;;;5053447;28;20404;-88
2022/05/08 03:57:37;;;;;;;12.35;11.45;;;12.80;99.90;;;;;;5053708;28;20848;-87
2022/05/08 04:00:04;;;;;;;12.90;11.70;;;12.90;99.90;;;;;;5053431;28;20385;-87
2022/05/08 04:02:29;;;;;;;12.50;11.60;;;13.00;99.90;;;;;;5053356;28;20512;-88
2022/05/08 04:04:55;;;;;;;12.67;11.77;;;12.90;99.90;;;;;;5053291;28;20417;-87
2022/05/08 04:07:21;;;;;;;12.80;11.80;;;12.90;99.90;;;;;;5053190;28;20414;-88
2022/05/08 04:09:46;;;;;;;12.00;11.10;;;12.90;99.90;;;;;;5053357;28;20377;-87
2022/05/08 04:12:12;;;;;;;13.07;12.27;;;12.90;99.90;;;;;;5053566;28;20476;-87
2022/05/08 04:14:38;;;;;;;12.45;11.55;;;12.80;99.90;;;;;;5053208;28;20469;-86
2022/05/08 04:17:04;;;;;;;12.75;11.90;;;12.80;99.90;;;;;;5053047;28;20404;-87
2022/05/08 04:19:30;;;;;;;13.18;12.27;;;12.90;99.90;;;;;;5053069;28;20417;-87
2022/05/08 04:24:16;;;;;;;14.17;12.97;;;12.70;99.90;;;;;;5043563;28;20454;-88
2022/05/08 04:24:44;;;;;;;13.45;12.45;;;12.60;99.90;;;;;;5042500;28;20373;-87
2022/05/08 04:27:10;;;;;;;14.45;13.25;;;12.40;99.90;;;;;;5052749;28;20381;-87
2022/05/08 04:29:36;;;;;;;14.43;13.37;;;12.30;99.90;;;;;;5052823;28;20389;-87
2022/05/08 04:32:02;;;;;;;14.10;13.10;;;12.60;99.90;;;;;;5051054;28;20905;-87
2022/05/08 04:34:28;;;;;;;14.45;13.45;;;12.10;99.90;;;;;;5052384;28;20393;-87
2022/05/08 04:36:53;;;;;;;15.15;13.95;;;12.30;99.90;;;;;;5053005;28;20394;-89
2022/05/08 04:39:19;;;;;;;13.57;12.57;;;12.20;99.90;;;;;;5052792;28;20473;-87
2022/05/08 04:41:44;;;;;;;15.00;13.98;;;12.20;99.90;;;;;;5051889;28;20471;-88
2022/05/08 04:44:10;;;;;;;14.77;13.77;;;11.90;99.90;;;;;;5052531;28;20390;-88
2022/05/08 04:46:36;;;;;;;15.10;13.90;;;11.70;99.90;;;;;;5052266;28;20389;-87
2022/05/08 04:49:02;;;;;;;14.18;13.07;;;11.70;99.90;;;;;;5052627;28;20886;-88
2022/05/08 04:51:28;;;;;;;13.95;12.95;;;11.70;99.90;;;;;;5049343;28;20381;-88
2022/05/08 04:53:53;;;;;;;15.50;14.33;;;11.90;99.90;;;;;;5052509;28;20459;-87
2022/05/08 04:56:19;;;;;;;13.53;12.53;;;11.80;99.90;;;;;;5052365;28;20385;-87
2022/05/08 04:58:44;;;;;;;14.07;13.03;;;12.00;99.90;;;;;;5052735;28;20392;-89
2022/05/08 05:01:10;;;;;;;12.70;11.80;;;12.00;99.90;;;;;;5052441;28;20397;-87
2022/05/08 05:03:36;;;;;;;13.15;12.15;;;12.10;99.90;;;;;;5052128;28;20394;-89
2022/05/08 05:06:02;;;;;;;13.18;12.13;;;12.20;99.90;;;;;;5052346;28;20381;-88
2022/05/08 05:08:28;;;;;;;13.13;12.20;;;12.30;99.90;;;;;;5052722;28;20909;-87
2022/05/08 05:10:54;;;;;;;12.57;11.77;;;12.20;99.90;;;;;;5052293;28;20504;-88
2022/05/08 05:13:19;;;;;;;11.73;10.85;;;12.40;99.90;;;;;;5052260;28;20378;-88
2022/05/08 05:15:45;;;;;;;12.00;11.20;;;12.50;99.90;;;;;;5049025;28;20405;-87
2022/05/08 05:18:11;;;;;;;11.33;10.63;;;12.40;99.90;;;;;;5052156;28;20396;-87
2022/05/08 05:20:36;;;;;;;11.60;10.90;;;12.50;99.90;;;;;;5052002;28;20743;-87
2022/05/08 05:23:03;;;;;;;12.17;11.33;;;12.30;99.90;;;;;;5051721;28;20479;-88
2022/05/08 05:25:29;;;;;;;11.35;10.55;;;12.30;99.90;;;;;;5051939;28;20436;-89
2022/05/08 05:27:55;;;;;;;10.35;9.65;;;12.60;99.90;;;;;;5052049;28;20382;-88
2022/05/08 05:30:22;;;;;;;10.45;9.75;;;12.80;99.90;;;;;;5052186;28;20386;-89
2022/05/08 05:32:47;;;;;;;9.98;9.27;;;12.70;99.90;;;;;;5051992;28;20397;-87
2022/05/08 05:35:13;;;;;;;10.70;10.00;;;12.90;99.90;;;;;;5051818;28;20400;-87
2022/05/08 05:37:39;;;;;;;10.87;10.07;;;12.70;99.90;;;;;;5052186;28;20463;-88
2022/05/08 05:40:08;;;;;;;10.67;9.97;;;13.10;99.90;;;;;;5052725;28;20408;-88
2022/05/08 05:42:34;;;;;;;9.57;8.88;;;12.70;99.90;;;;;;5051865;28;20752;-88
2022/05/08 05:45:00;;;;;;;9.90;9.20;;;12.60;99.90;;;;;;5048879;28;20389;-88
2022/05/08 05:50:10;;;;;;;9.18;8.60;;;12.60;99.90;;;;;;5051984;28;20380;-87
2022/05/08 05:52:37;;;;;;;9.55;8.75;;;12.70;99.90;;;;;;5053402;28;20382;-88
2022/05/08 05:55:06;;;;;;;9.45;8.85;;;12.80;99.90;;;;;;5055597;28;20389;-87
2022/05/08 05:57:33;;;;;;;9.93;9.17;;;12.80;99.90;;;;;;5054403;28;20474;-87
2022/05/08 05:59:58;;;;;;;9.77;9.18;;;13.00;99.90;;;;;;5055572;28;20476;-87
2022/05/08 06:02:24;;;;;;;9.53;8.83;;;12.80;99.90;;;;;;5055615;28;20839;-88
2022/05/08 06:04:50;;;;;;;9.03;8.33;;;12.90;99.90;;;;;;5055626;28;20439;-87
2022/05/08 06:07:16;;;;;;;9.53;8.63;;;12.90;99.90;;;;;;5055383;28;20400;-88
2022/05/08 06:09:42;;;;;;;9.83;9.03;;;12.90;99.90;;;;;;5055810;28;20405;-87
2022/05/08 06:12:07;;;;;;;9.73;9.07;;;12.90;99.90;;;;;;5055408;28;20803;-88
2022/05/08 06:14:33;;;;;;;10.13;9.32;;;12.90;99.90;;;;;;5055460;28;20389;-87
2022/05/08 06:16:59;;;;;;;8.70;8.10;;;13.00;99.90;;;;;;5055257;28;20397;-89
2022/05/08 06:19:24;;;;;;;9.00;8.40;;;13.40;99.90;;;;;;5055340;28;20758;-88
2022/05/08 06:21:50;;;;;;;9.00;8.33;;;13.10;99.90;;;;;;5055189;28;20432;-87
2022/05/08 06:24:15;;;;;;;10.10;9.40;;;13.10;99.90;;;;;;5055271;28;20460;-88
2022/05/08 06:26:41;;;;;;;9.30;8.70;;;13.20;99.90;;;;;;5055220;28;20482;-88
2022/05/08 06:29:07;;;;;;;9.20;8.50;;;13.20;99.90;;;;;;5055001;28;20377;-87
2022/05/08 06:31:33;;;;;;;9.40;8.80;;;13.30;99.90;;;;;;5055137;28;20413;-88
2022/05/08 06:33:58;;;;;;;10.17;9.47;;;13.20;99.90;;;;;;5055090;28;20439;-86
2022/05/08 06:36:26;;;;;;;9.93;9.23;;;13.10;99.90;;;;;;5054946;28;20417;-87
2022/05/08 06:38:52;;;;;;;10.48;9.68;;;13.10;99.90;;;;;;5054783;28;20761;-88
2022/05/08 06:41:17;;;;;;;9.90;9.20;;;13.20;99.90;;;;;;5055193;28;20817;-88
2022/05/08 06:43:44;;;;;;;10.97;10.07;;;13.30;99.90;;;;;;5054507;28;20378;-87
2022/05/08 06:46:10;;;;;;;10.63;9.88;;;13.20;99.90;;;;;;5054766;28;20471;-88
2022/05/08 06:48:36;;;;;;;10.60;9.90;;;13.20;99.90;;;;;;5054745;28;20381;-88
2022/05/08 06:51:03;;;;;;;10.27;9.68;;;13.30;99.90;;;;;;5054808;28;20878;-88
2022/05/08 06:53:31;;;;;;;11.05;10.25;;;13.30;99.90;;;;;;5054510;28;20782;-86
2022/05/08 06:55:57;;;;;;;10.75;10.05;;;13.30;99.90;;;;;;5054603;28;20416;-87
2022/05/08 06:58:24;;;;;;;11.67;10.87;;;13.40;99.90;;;;;;5054495;28;20871;-89
2022/05/08 07:03:36;;;;;;;11.18;10.38;;;13.20;99.90;;;;;;5053621;28;20479;-88
2022/05/08 07:06:02;;;;;;;10.70;9.90;;;13.30;99.90;;;;;;5054675;28;20874;-88
2022/05/08 07:08:28;;;;;;;11.30;10.50;;;13.30;99.90;;;;;;5054120;28;20393;-89
2022/05/08 07:10:54;;;;;;;10.75;10.05;;;13.30;99.90;;;;;;5054384;28;20381;-87
2022/05/08 07:13:26;;;;;;;11.45;10.63;;;13.40;99.90;;;;;;5054215;28;20432;-87
2022/05/08 07:15:53;;;;;;;11.02;10.32;;;13.40;99.90;;;;;;5054253;28;20417;-87
2022/05/08 07:18:19;;;;;;;10.60;9.90;;;13.40;99.90;;;;;;5050994;28;20385;-89
2022/05/08 07:20:45;;;;;;;11.15;10.45;;;13.50;99.90;;;;;;5053637;28;20377;-87
2022/05/08 07:23:11;;;;;;;11.57;10.77;;;13.60;99.90;;;;;;5054118;28;20792;-87
2022/05/08 07:25:39;;;;;;;12.25;11.43;;;13.70;99.90;;;;;;5054278;28;20741;-87
2022/05/08 07:28:05;;;;;;;10.82;10.02;;;13.60;99.90;;;;;;5054159;28;20377;-87
2022/05/08 07:30:30;;;;;;;12.68;11.48;;;13.60;99.90;;;;;;5053931;28;20416;-87
2022/05/08 07:33:00;;;;;;;11.68;10.88;;;13.60;99.90;;;;;;5053858;28;20385;-87
2022/05/08 07:38:10;;;;;;;11.98;11.18;;;13.70;99.90;;;;;;5053915;28;20451;-88
2022/05/08 07:40:35;;;;;;;12.40;11.40;;;13.70;99.90;;;;;;5053912;28;20807;-87
2022/05/08 07:43:01;;;;;;;10.93;10.23;;;13.90;99.90;;;;;;5053737;28;20412;-87
2022/05/08 07:45:28;;;;;;;11.57;10.77;;;13.90;99.90;;;;;;5053628;28;20444;-87
2022/05/08 07:47:55;;;;;;;11.18;10.38;;;14.00;99.90;;;;;;5046723;28;20878;-88
2022/05/08 07:50:21;;;;;;;11.83;11.03;;;13.90;99.90;;;;;;5053673;28;20466;-87
2022/05/08 07:52:46;;;;;;;11.27;10.47;;;13.90;99.90;;;;;;5053602;28;20397;-88
2022/05/08 07:55:12;;;;;;;11.57;10.80;;;14.00;99.90;;;;;;5053374;28;20416;-88
2022/05/08 07:57:38;;;;;;;11.87;11.07;;;14.10;99.90;;;;;;5053488;28;20877;-86
2022/05/08 08:00:05;;;;;;;11.17;10.43;;;14.10;99.90;;;;;;5053494;28;20478;-87
2022/05/08 08:02:31;;;;;;;11.82;11.02;;;14.20;99.90;;;;;;5053462;28;20436;-88
2022/05/08 08:04:57;;;;;;;11.85;10.95;;;14.10;99.90;;;;;;5053285;28;20417;-88
2022/05/08 08:07:23;;;;;;;11.75;10.88;;;14.10;99.90;;;;;;5053226;28;20390;-88
2022/05/08 08:09:48;;;;;;;11.90;11.00;;;14.10;99.90;;;;;;5053567;28;20405;-87
2022/05/08 08:12:14;;;;;;;11.52;10.63;;;14.10;99.90;;;;;;5053272;28;20815;-87
2022/05/08 08:14:39;;;;;;;10.70;10.00;;;14.10;99.90;;;;;;5052885;28;20480;-87
2022/05/08 08:17:05;;;;;;;11.02;10.23;;;14.20;99.90;;;;;;5052971;28;20464;-86
2022/05/08 08:19:30;;;;;;;10.38;9.65;;;14.20;99.90;;;;;;5053071;28;20728;-87
2022/05/08 08:21:59;;;;;;;10.00;9.30;;;14.40;99.90;;;;;;5052921;28;20431;-87
2022/05/08 08:24:25;;;;;;;9.93;9.30;;;14.60;99.90;;;;;;5053041;28;20389;-86
2022/05/08 08:26:51;;;;;;;8.87;8.17;;;14.70;99.90;;;;;;5052894;28;20473;-87
2022/05/08 08:29:17;;;;;;;9.75;9.05;;;14.90;99.90;;;;;;5053057;28;20906;-87
2022/05/08 08:31:42;;;;;;;9.45;8.60;;;15.00;99.90;;;;;;5052864;28;20476;-87
2022/05/08 08:34:08;;;;;;;9.00;8.40;;;15.20;99.90;;;;;;5052608;28;20468;-87
2022/05/08 08:36:35;;;;;;;10.00;9.30;;;15.40;99.90;;;;;;5052691;28;20390;-87
2022/05/08 08:39:01;;;;;;;9.50;8.68;;;15.50;99.90;;;;;;5052902;28;20389;-87
2022/05/08 08:41:34;;;;;;;8.43;7.73;;;15.60;99.90;;;;;;5053175;28;20915;-87
2022/05/08 08:49:42;;;;;;;9.25;8.55;;;15.80;99.90;;;;;;5052412;28;20497;-87
2022/05/08 08:52:10;;;;;;;9.38;8.68;;;15.80;99.90;;;;;;5052742;28;20385;-87
2022/05/08 08:54:35;;;;;;;9.43;8.70;;;15.80;99.90;;;;;;5051173;28;20396;-89
2022/05/08 08:57:01;;;;;;;8.87;8.27;;;15.90;99.90;;;;;;5052403;28;20464;-87
2022/05/08 08:59:27;;;;;;;8.70;8.10;;;15.90;99.90;;;;;;5052472;28;20471;-88
2022/05/08 09:01:52;;;;;;;8.40;7.80;;;16.00;99.90;;;;;;5052151;28;20401;-88
2022/05/08 09:04:19;;;;;;;8.50;7.82;;;16.20;99.90;;;;;;5048989;28;20797;-87
2022/05/08 09:06:45;;;;;;;8.27;7.67;;;16.30;99.90;;;;;;5052197;28;20385;-88
2022/05/08 09:09:22;;;;;;;7.97;7.27;;;16.40;99.90;;;;;;5052165;28;20447;-89
2022/05/08 09:11:47;;;;;;;7.03;6.53;;;16.50;99.90;;;;;;5052578;28;20951;-88
2022/05/08 09:14:27;;;;;;;7.50;6.93;;;16.60;99.90;;;;;;5051670;28;20433;-88
2022/05/08 09:16:53;;;;;;;7.35;6.85;;;16.60;99.90;;;;;;5048664;28;20460;-88
2022/05/08 09:19:38;;;;;;;5.85;5.50;;;16.50;99.90;;;;;;5049874;28;20393;-87
2022/05/08 09:22:09;;;;;;;6.50;6.00;;;16.60;99.90;;;;;;5051977;28;20900;-88
2022/05/08 09:24:38;;;;;;;6.20;5.70;;;16.60;99.90;;;;;;5052212;28;20786;-88
2022/05/08 09:27:17;;;;;;;6.60;6.10;;;16.70;99.90;;;;;;5051388;28;20393;-88
2022/05/08 09:29:44;;;;;;;6.55;6.00;;;16.70;99.90;;;;;;5053342;28;20396;-87
2022/05/08 09:32:22;;;;;;;6.30;5.90;;;16.80;99.90;;;;;;5051837;28;20866;-88
2022/05/08 09:34:57;;;;;;;6.32;5.85;;;16.90;99.90;;;;;;5052214;28;20389;-87
2022/05/08 09:37:27;;;;;;;5.55;5.20;;;17.10;99.90;;;;;;5052216;28;20780;-89
2022/05/08 09:40:16;;;;;;;5.45;5.15;;;17.20;99.90;;;;;;5051937;28;20385;-87
2022/05/08 09:42:42;;;;;;;5.38;5.05;;;17.40;99.90;;;;;;5052116;28;20801;-88
2022/05/08 09:45:08;;;;;;;5.32;4.93;;;17.40;99.90;;;;;;5052034;28;20397;-88
2022/05/08 09:47:42;;;;;;;5.68;5.18;;;17.50;99.90;;;;;;5051864;28;20378;-88
2022/05/08 09:50:09;;;;;;;6.30;5.80;;;17.50;99.90;;;;;;5049242;28;20385;-88
2022/05/08 09:52:39;;;;;;;6.80;6.05;;;17.40;99.90;;;;;;5051685;28;20389;-88
2022/05/08 09:55:08;;;;;;;5.82;5.40;;;17.50;99.90;;;;;;5052039;28;20874;-89
2022/05/08 09:57:35;;;;;;;6.22;5.70;;;17.60;99.90;;;;;;5051816;28;20947;-89
2022/05/08 10:00:02;;;;;;;5.33;4.93;;;17.80;99.90;;;;;;5051766;28;20432;-88
2022/05/08 10:02:29;;;;;;;6.00;5.47;;;17.90;99.90;;;;;;5051710;28;20432;-88
2022/05/08 10:04:54;;;;;;;6.07;5.57;;;18.10;99.90;;;;;;5051762;28;20394;-89
2022/05/08 10:07:21;;;;;;;6.05;5.55;;;18.20;99.90;;;;;;5050244;28;20855;-89
2022/05/08 10:15:18;;;;;;;4.90;4.50;;;18.10;99.90;;;;;;5051675;28;20388;-88
2022/05/08 10:17:44;;;;;;;4.53;4.22;;;18.00;99.90;;;;;;5051559;28;20480;-89
2022/05/08 10:20:10;;;;;;;4.50;4.10;;;18.10;99.90;;;;;;5051415;28;20527;-90
2022/05/08 10:22:49;;;;;;;4.70;4.30;;;18.10;99.90;;;;;;5052953;28;20405;-89
2022/05/08 10:25:17;;;;;;;4.53;4.13;;;18.10;99.90;;;;;;5053502;28;20404;-89
2022/05/08 10:28:05;;;;;;;4.43;4.03;;;18.30;99.90;;;;;;5052355;28;20382;-89
2022/05/08 10:30:31;;;;;;;4.53;4.18;;;18.40;99.90;;;;;;5051701;28;20413;-90
2022/05/08 10:32:57;;;;;;;4.23;3.93;;;18.40;99.90;;;;;;5051742;28;20427;-90
2022/05/08 10:35:26;;;;;;;4.80;4.40;;;18.40;99.90;;;;;;5051488;28;20393;-90
2022/05/08 10:38:01;;;;;;;4.40;4.10;;;18.40;99.90;;;;;;5037579;28;20428;-90
2022/05/08 10:40:27;;;;;;;3.70;3.50;;;18.30;99.90;;;;;;5054346;28;20390;-90
2022/05/08 10:43:18;;;;;;;4.23;3.83;;;18.30;99.90;;;;;;5054666;28;20459;-89
2022/05/08 10:45:44;;;;;;;4.30;4.00;;;18.10;99.90;;;;;;5054348;28;20409;-89
2022/05/08 10:48:21;;;;;;;4.25;3.95;;;18.10;99.90;;;;;;5054767;28;20412;-89
2022/05/08 10:50:53;;;;;;;4.40;4.10;;;18.10;99.90;;;;;;5054832;28;20384;-90
2022/05/08 10:53:24;;;;;;;4.50;4.10;;;18.00;99.90;;;;;;5054725;28;20382;-90
2022/05/08 10:55:51;;;;;;;4.00;3.80;;;18.00;99.90;;;;;;5053231;28;20385;-89
2022/05/08 10:58:17;;;;;;;5.43;4.93;;;17.90;99.90;;;;;;5054608;28;20906;-89
2022/05/08 11:00:43;;;;;;;4.97;4.57;;;17.90;99.90;;;;;;5054564;28;20385;-89
2022/05/08 11:03:09;;;;;;;4.53;4.22;;;17.80;99.90;;;;;;5052059;28;20398;-89
2022/05/08 11:05:39;;;;;;;5.03;4.65;;;17.80;99.90;;;;;;5054337;28;20389;-89
2022/05/08 11:08:08;;;;;;;5.18;4.75;;;17.70;99.90;;;;;;5054385;28;20761;-89
2022/05/08 11:10:36;;;;;;;4.95;4.63;;;17.80;99.90;;;;;;5054399;28;20423;-90
2022/05/08 11:13:10;;;;;;;5.03;4.72;;;17.70;99.90;;;;;;5054226;28;20472;-89
2022/05/08 11:15:39;;;;;;;4.65;4.35;;;17.70;99.90;;;;;;5054092;28;20389;-89
2022/05/08 11:18:12;;;;;;;4.97;4.57;;;17.70;99.90;;;;;;5054525;28;20416;-89
2022/05/08 11:20:45;;;;;;;4.38;4.15;;;17.70;99.90;;;;;;5054318;28;20417;-88
2022/05/08 11:23:12;;;;;;;4.50;4.20;;;17.70;99.90;;;;;;5053299;28;20404;-88
2022/05/08 11:25:38;;;;;;;4.70;4.38;;;17.60;99.90;;;;;;5053973;28;20416;-90
2022/05/08 11:28:04;;;;;;;4.80;4.45;;;17.60;99.90;;;;;;5054029;28;20929;-89
2022/05/08 11:30:35;;;;;;;5.25;4.55;;;17.60;99.90;;;;;;5053970;28;20390;-89
2022/05/08 11:36:06;;;;;;;4.45;4.15;;;17.60;99.90;;;;;;5053944;28;20408;-89
2022/05/08 11:38:45;;;;;;;4.80;4.50;;;17.60;99.90;;;;;;5054183;28;20384;-90
2022/05/08 11:41:16;;;;;;;4.70;4.32;;;17.60;99.90;;;;;;5053538;28;20401;-89
2022/05/08 11:43:49;;;;;;;4.10;3.90;;;17.70;99.90;;;;;;5054043;28;20444;-89
2022/05/08 11:46:32;;;;;;;4.18;3.85;;;17.80;99.90;;;;;;5053728;28;20885;-91
2022/05/08 11:48:58;;;;;;;3.50;3.28;;;18.10;99.90;;;;;;5053733;28;20477;-89
2022/05/08 11:51:24;;;;;;;3.53;3.33;;;18.40;99.90;;;;;;5053353;28;20958;-90
2022/05/08 11:53:51;;;;;;;3.55;3.35;;;18.70;99.90;;;;;;5053565;28;20397;-91
2022/05/08 11:56:29;;;;;;;3.85;3.65;;;18.90;99.90;;;;;;5053710;28;20389;-90
2022/05/08 11:58:56;;;;;;;4.55;3.95;;;19.00;99.90;;;;;;5053557;28;20401;-90
2022/05/08 12:01:30;;;;;;;3.87;3.60;;;19.10;99.90;;;;;;5050854;28;20484;-89
2022/05/08 12:03:58;;;;;;;4.20;3.80;;;19.10;99.90;;;;;;5040497;28;20871;-90
2022/05/08 12:06:24;;;;;;;3.35;3.15;;;19.10;99.90;;;;;;5052117;28;20874;-91
2022/05/08 12:08:50;;;;;;;4.40;3.47;;;19.10;99.90;;;;;;5053118;28;20404;-90
2022/05/08 12:11:37;;;;;;;3.75;3.45;;;19.00;99.90;;;;;;5053303;28;20437;-90
2022/05/08 12:14:04;;;;;;;4.53;4.22;;;18.90;99.90;;;;;;5039447;28;20392;-90
2022/05/08 12:16:32;;;;;;;4.55;4.13;;;19.00;99.90;;;;;;5053168;28;20374;-91
2022/05/08 12:19:18;;;;;;;4.35;4.07;;;18.90;99.90;;;;;;5053237;28;20386;-90
2022/05/08 12:21:48;;;;;;;4.40;4.00;;;19.00;99.90;;;;;;5053531;28;20806;-89
2022/05/08 12:24:17;;;;;;;4.32;4.03;;;19.10;99.90;;;;;;5052893;28;20409;-89
2022/05/08 12:26:43;;;;;;;4.70;4.30;;;18.90;99.90;;;;;;5052944;28;20940;-89
2022/05/08 12:29:21;;;;;;;4.47;4.18;;;18.80;99.90;;;;;;5052849;28;20390;-89
2022/05/08 12:31:50;;;;;;;5.97;4.22;;;18.80;99.90;;;;;;5053056;28;20390;-88
2022/05/08 12:34:16;;;;;;;5.80;4.75;;;18.70;99.90;;;;;;5052655;28;20431;-88
2022/05/08 12:36:42;;;;;;;4.80;4.50;;;18.60;99.90;;;;;;5052677;28;20385;-90
2022/05/08 12:39:11;;;;;;;4.30;4.00;;;18.50;99.90;;;;;;5052704;28;20398;-90
2022/05/08 12:41:38;;;;;;;4.90;4.47;;;18.50;99.90;;;;;;5051438;28;20413;-88
2022/05/08 12:44:04;;;;;;;4.40;4.10;;;18.50;99.90;;;;;;5052390;28;20399;-89
2022/05/08 12:46:31;;;;;;;4.43;4.13;;;18.50;99.90;;;;;;5052603;28;20929;-89
2022/05/08 12:49:02;;;;;;;4.68;4.38;;;18.50;99.90;;;;;;5052642;28;20451;-89
2022/05/08 12:51:29;;;;;;;4.63;4.32;;;18.60;99.90;;;;;;5053164;28;20474;-88
2022/05/08 12:53:56;;;;;;;4.55;4.25;;;18.80;99.90;;;;;;5052534;28;20875;-88
2022/05/08 12:56:21;;;;;;;4.40;4.10;;;18.70;99.90;;;;;;5052580;28;20456;-89
2022/05/08 13:01:31;;;;;;;4.32;4.00;;;18.80;99.90;;;;;;5051690;28;20420;-88
2022/05/08 13:03:56;;;;;;;4.20;3.90;;;18.80;99.90;;;;;;5052113;28;20465;-89
2022/05/08 13:06:22;;;;;;;4.20;3.90;;;18.70;99.90;;;;;;5052024;28;20847;-88
2022/05/08 13:08:48;;;;;;;4.22;3.92;;;18.70;99.90;;;;;;5052234;28;20400;-89
2022/05/08 13:11:13;;;;;;;3.85;3.60;;;18.70;99.90;;;;;;5048994;28;20989;-88
2022/05/08 13:13:39;;;;;;;3.47;3.27;;;18.80;99.90;;;;;;5052199;28;20398;-89